Time;durP1;ratioP1;P1;durP2;ratioP2;P2;SDS_P1;SDS_P2;PMS_P1;PMS_P2;Temp;Humidity;BMP_temperature;BMP_pressure;BME280_temperature;BME280_humidity;BME280_pressure;Samples;Min_cycle;Max_cycle;Signal;HPM_P1;HPM_P2
2022/07/09 00:00:22;;;;;;;9.47;5.87;;;17.30;84.00;;;;;;4933375;29;20446;-88
2022/07/09 00:02:49;;;;;;;6.03;5.23;;;17.30;84.70;;;;;;4933449;29;21096;-87
2022/07/09 00:05:15;;;;;;;10.40;5.70;;;17.20;85.20;;;;;;4931825;29;20482;-86
2022/07/09 00:07:42;;;;;;;8.30;5.40;;;17.20;85.70;;;;;;4937987;29;20457;-87
2022/07/09 00:10:10;;;;;;;7.37;5.37;;;17.10;86.20;;;;;;4935345;28;20532;-87
2022/07/09 00:12:38;;;;;;;8.17;5.90;;;17.10;86.80;;;;;;4939650;28;20490;-87
2022/07/09 00:15:06;;;;;;;10.07;5.87;;;17.00;87.30;;;;;;4939953;29;20481;-87
2022/07/09 00:17:36;;;;;;;6.47;5.27;;;17.00;87.60;;;;;;4948373;29;20481;-86
2022/07/09 00:20:05;;;;;;;6.83;4.87;;;16.90;88.10;;;;;;4944017;29;20473;-87
2022/07/09 00:22:32;;;;;;;7.13;5.70;;;16.90;88.60;;;;;;4943483;29;20517;-87
2022/07/09 00:24:59;;;;;;;11.50;6.10;;;16.90;89.10;;;;;;4963618;29;20540;-88
2022/07/09 00:27:26;;;;;;;7.07;6.07;;;16.80;89.80;;;;;;4958502;28;20452;-89
2022/07/09 00:29:54;;;;;;;6.93;6.23;;;16.70;90.10;;;;;;4943736;29;20446;-88
2022/07/09 00:32:21;;;;;;;7.83;5.37;;;16.70;90.50;;;;;;4943749;29;20445;-87
2022/07/09 00:34:47;;;;;;;6.63;5.90;;;16.60;90.90;;;;;;4944463;29;20991;-87
2022/07/09 00:37:14;;;;;;;7.03;5.93;;;16.60;91.40;;;;;;4940713;28;20951;-87
2022/07/09 00:39:41;;;;;;;8.17;6.10;;;16.60;91.80;;;;;;4940018;29;20461;-87
2022/07/09 00:42:09;;;;;;;6.90;6.30;;;16.60;91.90;;;;;;4940464;29;20486;-87
2022/07/09 00:44:37;;;;;;;9.90;6.60;;;16.50;92.00;;;;;;4937364;29;20817;-86
2022/07/09 00:47:06;;;;;;;6.40;5.63;;;16.50;92.30;;;;;;4939331;28;20485;-87
2022/07/09 00:49:36;;;;;;;8.03;6.07;;;16.50;92.40;;;;;;4940081;28;20869;-87
2022/07/09 00:52:05;;;;;;;13.20;6.40;;;16.50;92.80;;;;;;4941684;29;20453;-87
2022/07/09 00:54:32;;;;;;;8.40;7.50;;;16.60;92.90;;;;;;4956928;29;20480;-85
2022/07/09 00:56:59;;;;;;;12.97;6.70;;;16.50;92.90;;;;;;4957392;29;20464;-87
2022/07/09 00:59:26;;;;;;;8.10;6.07;;;16.50;93.20;;;;;;4958466;29;20442;-87
2022/07/09 01:01:53;;;;;;;9.20;8.00;;;16.50;93.30;;;;;;4960113;29;20438;-87
2022/07/09 01:04:21;;;;;;;7.17;6.50;;;16.40;93.70;;;;;;4941561;29;20862;-87
2022/07/09 01:06:48;;;;;;;8.90;6.80;;;16.40;94.00;;;;;;4941097;29;20486;-87
2022/07/09 01:09:15;;;;;;;10.80;8.00;;;16.30;94.30;;;;;;4941125;29;20446;-87
2022/07/09 01:11:42;;;;;;;13.03;6.50;;;16.30;94.50;;;;;;4940975;29;20826;-87
2022/07/09 01:14:08;;;;;;;7.80;6.17;;;16.30;94.80;;;;;;4940539;29;20493;-87
2022/07/09 01:16:37;;;;;;;9.63;7.37;;;16.30;94.90;;;;;;4940279;28;20449;-87
2022/07/09 01:19:04;;;;;;;10.17;7.20;;;16.20;95.10;;;;;;4940343;29;20462;-87
2022/07/09 01:21:33;;;;;;;7.97;6.40;;;16.30;95.40;;;;;;4939692;29;20477;-87
2022/07/09 01:23:59;;;;;;;10.13;6.97;;;16.20;95.20;;;;;;4934114;29;20746;-86
2022/07/09 01:26:26;;;;;;;11.17;6.57;;;16.20;96.10;;;;;;4940943;28;20478;-86
2022/07/09 01:28:53;;;;;;;7.03;6.37;;;16.10;95.90;;;;;;4946706;29;20947;-86
2022/07/09 01:31:20;;;;;;;7.30;5.60;;;16.20;95.90;;;;;;4963409;29;20429;-87
2022/07/09 01:33:47;;;;;;;8.00;6.03;;;16.10;95.90;;;;;;4948578;29;20442;-87
2022/07/09 01:36:14;;;;;;;7.20;5.67;;;16.10;96.20;;;;;;4939477;29;20939;-87
2022/07/09 01:38:42;;;;;;;8.73;5.90;;;16.00;96.30;;;;;;4938613;28;20509;-87
2022/07/09 01:41:08;;;;;;;12.60;5.60;;;16.00;96.60;;;;;;4940232;28;20461;-87
2022/07/09 01:43:36;;;;;;;7.60;6.33;;;16.00;96.50;;;;;;4936447;29;20451;-87
2022/07/09 01:46:02;;;;;;;7.50;5.73;;;16.00;96.70;;;;;;4936810;29;20974;-86
2022/07/09 01:48:29;;;;;;;6.93;5.63;;;16.00;96.70;;;;;;4938474;29;20442;-89
2022/07/09 01:50:58;;;;;;;9.80;5.87;;;15.90;97.00;;;;;;4938039;29;20457;-87
2022/07/09 01:53:25;;;;;;;7.97;5.80;;;15.90;97.10;;;;;;4938205;28;20797;-87
2022/07/09 01:55:53;;;;;;;7.23;6.57;;;15.90;97.30;;;;;;4936677;29;20450;-86
2022/07/09 01:58:19;;;;;;;8.40;5.80;;;15.90;97.40;;;;;;4937216;29;20454;-87
2022/07/09 02:00:46;;;;;;;8.73;7.00;;;15.80;97.70;;;;;;4937515;29;20455;-86
2022/07/09 02:03:13;;;;;;;9.77;6.10;;;15.80;98.00;;;;;;4937201;29;20454;-87
2022/07/09 02:05:40;;;;;;;9.67;6.67;;;15.70;98.10;;;;;;4936643;29;20493;-86
2022/07/09 02:08:06;;;;;;;8.97;6.43;;;15.70;98.40;;;;;;4936056;28;20468;-86
2022/07/09 02:10:33;;;;;;;8.97;6.20;;;15.70;98.70;;;;;;4937940;29;20947;-86
2022/07/09 02:13:01;;;;;;;12.33;6.40;;;15.60;99.20;;;;;;4937975;29;20454;-85
2022/07/09 02:15:28;;;;;;;10.47;6.93;;;15.50;99.60;;;;;;4953666;29;20478;-86
2022/07/09 02:17:55;;;;;;;9.90;6.70;;;15.50;99.90;;;;;;4954178;29;20461;-87
2022/07/09 02:20:22;;;;;;;8.73;6.20;;;15.50;99.90;;;;;;4940259;29;20454;-87
2022/07/09 02:22:49;;;;;;;8.03;7.00;;;15.50;99.90;;;;;;4937658;29;20943;-87
2022/07/09 02:25:16;;;;;;;10.87;6.90;;;15.50;99.90;;;;;;4937005;29;20489;-86
2022/07/09 02:27:42;;;;;;;9.00;7.43;;;15.50;99.90;;;;;;4936697;29;20451;-87
2022/07/09 02:30:11;;;;;;;8.20;6.73;;;15.50;99.90;;;;;;4937276;28;20947;-86
2022/07/09 02:32:39;;;;;;;9.33;6.37;;;15.40;99.90;;;;;;4936827;29;20457;-86
2022/07/09 02:35:07;;;;;;;11.77;7.23;;;15.40;99.90;;;;;;4942328;29;20478;-87
2022/07/09 02:37:34;;;;;;;8.27;6.30;;;15.40;99.90;;;;;;4942599;29;20450;-87
2022/07/09 02:40:00;;;;;;;13.67;7.03;;;15.40;99.90;;;;;;4952677;29;20510;-87
2022/07/09 02:42:27;;;;;;;12.97;7.97;;;15.40;99.90;;;;;;4945840;29;20454;-87
2022/07/09 02:44:54;;;;;;;8.40;6.30;;;15.40;99.90;;;;;;4936265;29;20477;-87
2022/07/09 02:47:22;;;;;;;8.60;7.33;;;15.40;99.90;;;;;;4935528;29;20494;-87
2022/07/09 02:49:49;;;;;;;11.60;6.90;;;15.30;99.90;;;;;;4935740;29;20461;-85
2022/07/09 02:52:15;;;;;;;11.40;7.30;;;15.30;99.90;;;;;;4938359;29;20442;-86
2022/07/09 02:54:42;;;;;;;7.60;5.90;;;15.30;99.90;;;;;;4939846;29;20849;-87
2022/07/09 02:57:09;;;;;;;7.73;6.17;;;15.20;99.90;;;;;;4935144;28;20462;-87
2022/07/09 02:59:36;;;;;;;8.37;7.10;;;15.20;99.90;;;;;;4935367;29;20462;-87
2022/07/09 03:02:02;;;;;;;8.13;6.63;;;15.10;99.90;;;;;;4935611;29;20454;-87
2022/07/09 03:04:31;;;;;;;8.37;6.50;;;15.10;99.90;;;;;;4950201;23;20501;-88
2022/07/09 03:06:57;;;;;;;10.80;6.70;;;15.10;99.90;;;;;;4935451;29;20496;-88
2022/07/09 03:09:24;;;;;;;7.87;6.90;;;15.00;99.90;;;;;;4944855;29;20450;-88
2022/07/09 03:11:51;;;;;;;7.00;6.20;;;15.00;99.90;;;;;;4948549;28;20450;-88
2022/07/09 03:14:17;;;;;;;10.77;8.40;;;15.00;99.90;;;;;;4944588;29;20474;-87
2022/07/09 03:16:44;;;;;;;9.70;7.33;;;15.00;99.90;;;;;;4944558;29;20470;-88
2022/07/09 03:19:11;;;;;;;7.10;6.43;;;15.00;99.90;;;;;;4938367;29;20458;-88
2022/07/09 03:21:39;;;;;;;8.20;6.73;;;14.90;99.90;;;;;;4952245;29;20468;-87
2022/07/09 03:24:08;;;;;;;11.43;6.90;;;14.90;99.90;;;;;;4946991;29;20457;-87
2022/07/09 03:26:34;;;;;;;7.80;6.43;;;14.90;99.90;;;;;;4939489;29;20890;-88
2022/07/09 03:29:01;;;;;;;7.23;6.53;;;14.90;99.90;;;;;;4950477;29;20454;-88
2022/07/09 03:31:28;;;;;;;7.50;6.10;;;14.90;99.90;;;;;;4936806;29;20450;-88
2022/07/09 03:33:55;;;;;;;8.17;6.50;;;15.00;99.90;;;;;;4956890;28;20502;-88
2022/07/09 03:36:21;;;;;;;8.67;6.40;;;14.90;99.90;;;;;;4942367;29;20442;-88
2022/07/09 03:38:49;;;;;;;10.27;7.67;;;15.00;99.90;;;;;;4937593;29;20465;-88
2022/07/09 03:41:16;;;;;;;8.60;6.63;;;14.90;99.90;;;;;;4938776;29;20450;-89
2022/07/09 03:43:43;;;;;;;7.67;6.73;;;14.80;99.90;;;;;;4952481;29;20538;-89
2022/07/09 03:46:10;;;;;;;9.27;6.30;;;14.80;99.90;;;;;;4953021;29;20490;-89
2022/07/09 03:48:36;;;;;;;6.67;5.77;;;14.80;99.90;;;;;;4953047;28;20948;-88
2022/07/09 03:51:03;;;;;;;7.23;5.87;;;14.70;99.90;;;;;;4952605;29;20461;-88
2022/07/09 03:53:30;;;;;;;8.43;5.80;;;14.70;99.90;;;;;;4945629;29;20484;-88
2022/07/09 03:55:58;;;;;;;8.30;6.03;;;14.70;99.90;;;;;;4938500;29;20446;-88
2022/07/09 03:58:24;;;;;;;9.03;6.80;;;14.70;99.90;;;;;;4952252;29;20438;-88
2022/07/09 04:00:52;;;;;;;6.50;5.57;;;14.60;99.90;;;;;;4959600;29;20438;-88
2022/07/09 04:03:19;;;;;;;9.10;7.83;;;14.60;99.90;;;;;;4943600;29;20514;-88
2022/07/09 04:05:47;;;;;;;10.10;5.87;;;14.70;99.90;;;;;;4938087;29;20472;-87
2022/07/09 04:08:14;;;;;;;8.37;6.17;;;14.70;99.90;;;;;;4941817;29;20445;-87
2022/07/09 04:10:41;;;;;;;6.40;5.23;;;14.70;99.90;;;;;;4937479;29;20517;-88
2022/07/09 04:13:09;;;;;;;7.40;5.90;;;14.70;99.90;;;;;;4936834;29;20478;-88
2022/07/09 04:15:35;;;;;;;6.40;5.87;;;14.70;99.90;;;;;;4936858;29;20450;-88
2022/07/09 04:18:02;;;;;;;6.30;5.70;;;14.80;99.90;;;;;;4936197;29;20450;-88
2022/07/09 04:20:29;;;;;;;9.60;6.00;;;14.80;99.90;;;;;;4954133;29;21204;-88
2022/07/09 04:22:56;;;;;;;6.57;5.90;;;14.70;99.90;;;;;;4939074;29;20816;-88
2022/07/09 04:25:23;;;;;;;6.67;6.07;;;14.70;99.90;;;;;;4938050;29;21001;-88
2022/07/09 04:27:49;;;;;;;6.17;5.57;;;14.70;99.90;;;;;;4935996;29;21046;-88
2022/07/09 04:30:17;;;;;;;7.37;6.03;;;14.80;99.90;;;;;;4935516;29;20461;-88
2022/07/09 04:32:44;;;;;;;6.47;5.83;;;14.80;99.90;;;;;;4934932;29;20529;-88
2022/07/09 04:35:11;;;;;;;7.00;5.70;;;14.80;99.90;;;;;;4935723;29;20464;-88
2022/07/09 04:37:38;;;;;;;7.43;6.70;;;14.80;99.90;;;;;;4938308;29;20461;-88
2022/07/09 04:40:06;;;;;;;8.40;7.70;;;14.80;99.90;;;;;;4941585;29;20454;-87
2022/07/09 04:42:33;;;;;;;8.63;6.03;;;14.80;99.90;;;;;;4938042;29;20450;-88
2022/07/09 04:44:59;;;;;;;7.40;6.60;;;14.80;99.90;;;;;;4951812;29;20645;-87
2022/07/09 04:47:28;;;;;;;6.37;5.70;;;14.90;99.90;;;;;;4956971;29;20482;-87
2022/07/09 04:49:54;;;;;;;8.20;6.60;;;14.90;99.90;;;;;;4956101;29;20430;-88
2022/07/09 04:52:21;;;;;;;6.23;5.73;;;15.00;99.90;;;;;;4936987;29;20450;-88
2022/07/09 04:54:48;;;;;;;6.70;5.33;;;15.00;99.90;;;;;;4947407;29;20465;-88
2022/07/09 04:57:15;;;;;;;7.70;5.87;;;15.00;99.90;;;;;;4960328;29;20453;-87
2022/07/09 04:59:42;;;;;;;8.47;5.70;;;15.00;99.90;;;;;;4944827;29;20959;-88
2022/07/09 05:02:08;;;;;;;6.50;5.57;;;15.00;99.90;;;;;;4960205;29;20437;-88
2022/07/09 05:04:37;;;;;;;7.13;5.70;;;15.00;99.90;;;;;;4950634;29;20480;-88
2022/07/09 05:07:05;;;;;;;7.57;5.33;;;15.10;99.90;;;;;;4941406;29;20489;-87
2022/07/09 05:09:32;;;;;;;9.30;6.97;;;15.10;99.90;;;;;;4941998;29;20530;-88
2022/07/09 05:11:59;;;;;;;7.17;6.33;;;15.20;99.90;;;;;;4959393;29;20457;-87
2022/07/09 05:14:25;;;;;;;9.30;6.33;;;15.30;99.90;;;;;;4950911;29;20474;-88
2022/07/09 05:16:52;;;;;;;10.60;6.50;;;15.50;99.90;;;;;;4938343;29;20477;-87
2022/07/09 05:19:19;;;;;;;7.70;5.60;;;15.50;99.90;;;;;;4938457;29;20446;-88
2022/07/09 05:21:47;;;;;;;7.53;6.47;;;15.70;99.90;;;;;;4938139;29;20457;-88
2022/07/09 05:24:13;;;;;;;7.30;6.23;;;15.90;99.90;;;;;;4949051;29;20446;-87
2022/07/09 05:26:40;;;;;;;7.60;5.60;;;16.20;99.90;;;;;;4954613;29;20561;-87
2022/07/09 05:29:07;;;;;;;10.73;5.30;;;16.50;99.90;;;;;;4938672;29;20940;-88
2022/07/09 05:31:34;;;;;;;5.23;4.73;;;17.10;99.90;;;;;;4938765;29;20457;-88
2022/07/09 05:34:00;;;;;;;5.60;5.10;;;17.80;98.10;;;;;;4950749;29;20466;-88
2022/07/09 05:36:28;;;;;;;6.90;4.83;;;18.40;96.10;;;;;;4949081;29;20457;-88
2022/07/09 05:38:56;;;;;;;4.87;4.37;;;19.00;94.10;;;;;;4938348;29;20830;-88
2022/07/09 05:41:24;;;;;;;5.70;5.00;;;19.50;92.00;;;;;;4938238;29;20457;-88
2022/07/09 05:43:51;;;;;;;7.20;5.03;;;19.90;90.70;;;;;;4939889;29;20480;-87
2022/07/09 05:46:18;;;;;;;5.70;4.60;;;20.10;88.00;;;;;;4952304;29;20462;-87
2022/07/09 05:48:44;;;;;;;6.37;4.20;;;20.40;86.20;;;;;;4962782;29;20449;-87
2022/07/09 05:51:11;;;;;;;6.67;4.20;;;20.70;83.90;;;;;;4954059;29;20449;-88
2022/07/09 05:53:38;;;;;;;6.70;4.17;;;21.10;81.10;;;;;;4943721;29;20467;-87
2022/07/09 05:56:07;;;;;;;7.63;4.03;;;21.40;78.90;;;;;;4942870;29;20446;-87
2022/07/09 05:58:34;;;;;;;4.73;4.23;;;21.60;78.10;;;;;;4949738;29;20446;-88
2022/07/09 06:01:00;;;;;;;7.40;4.73;;;22.10;76.10;;;;;;4952910;29;20456;-88
2022/07/09 06:03:27;;;;;;;4.83;4.07;;;22.20;74.40;;;;;;4961130;29;20458;-87
2022/07/09 06:05:54;;;;;;;7.77;4.40;;;22.40;73.20;;;;;;4957871;29;20450;-88
2022/07/09 06:08:20;;;;;;;4.80;4.30;;;22.90;72.70;;;;;;4947947;29;20509;-88
2022/07/09 06:10:48;;;;;;;6.00;5.27;;;22.90;70.80;;;;;;4940550;29;20454;-87
2022/07/09 06:13:16;;;;;;;5.17;4.13;;;22.90;69.80;;;;;;4938747;29;20498;-88
2022/07/09 06:15:43;;;;;;;6.73;4.40;;;22.60;71.00;;;;;;4939903;29;20457;-89
2022/07/09 06:18:10;;;;;;;7.50;4.53;;;22.70;71.90;;;;;;4939092;29;20542;-88
2022/07/09 06:20:36;;;;;;;6.27;5.53;;;22.80;69.80;;;;;;4944833;29;20469;-88
2022/07/09 06:23:03;;;;;;;5.40;4.20;;;23.10;69.90;;;;;;4956356;29;20466;-88
2022/07/09 06:25:30;;;;;;;9.70;5.40;;;23.60;69.50;;;;;;4938027;29;20458;-88
2022/07/09 06:27:57;;;;;;;9.73;6.63;;;24.00;67.60;;;;;;4937418;29;20580;-89
2022/07/09 06:30:25;;;;;;;6.87;6.30;;;24.30;65.40;;;;;;4937947;29;20501;-87
2022/07/09 06:32:51;;;;;;;7.10;6.50;;;24.60;64.40;;;;;;4937528;29;20501;-88
2022/07/09 06:35:18;;;;;;;7.70;7.00;;;24.90;63.20;;;;;;4936370;29;20442;-88
2022/07/09 06:37:45;;;;;;;5.43;4.87;;;25.10;61.90;;;;;;4936421;29;21041;-89
2022/07/09 06:40:12;;;;;;;6.20;4.67;;;25.30;61.50;;;;;;4936546;29;20458;-88
2022/07/09 06:42:39;;;;;;;4.87;4.37;;;25.20;60.90;;;;;;4938005;29;20530;-89
2022/07/09 06:45:07;;;;;;;6.70;4.23;;;25.00;60.90;;;;;;4936654;29;20485;-88
2022/07/09 06:47:35;;;;;;;5.37;4.60;;;24.40;62.40;;;;;;4937485;29;20492;-88
2022/07/09 06:50:02;;;;;;;7.27;4.60;;;23.50;63.80;;;;;;4952946;29;20450;-88
2022/07/09 06:52:29;;;;;;;5.37;4.57;;;22.80;67.20;;;;;;4959204;29;20430;-87
2022/07/09 06:54:56;;;;;;;7.83;4.43;;;22.30;68.80;;;;;;4957883;29;20695;-87
2022/07/09 06:57:22;;;;;;;5.83;4.10;;;21.90;71.30;;;;;;4939267;29;21007;-88
2022/07/09 06:59:49;;;;;;;5.43;4.43;;;22.00;71.80;;;;;;4942233;29;20875;-88
2022/07/09 07:02:16;;;;;;;5.30;3.63;;;22.40;70.80;;;;;;4946544;29;20449;-89
2022/07/09 07:04:44;;;;;;;5.13;4.70;;;23.20;70.20;;;;;;4937761;29;20492;-89
2022/07/09 07:07:11;;;;;;;5.80;4.60;;;24.20;66.60;;;;;;4937935;29;20868;-89
2022/07/09 07:09:38;;;;;;;6.60;4.67;;;24.80;64.00;;;;;;4936781;29;20463;-89
2022/07/09 07:12:06;;;;;;;5.77;4.67;;;25.00;62.80;;;;;;4937341;29;20513;-88
2022/07/09 07:14:32;;;;;;;7.47;3.87;;;25.30;62.20;;;;;;4939541;29;20478;-88
2022/07/09 07:16:59;;;;;;;5.97;4.13;;;25.60;60.90;;;;;;4957438;29;20434;-88
2022/07/09 07:19:26;;;;;;;6.40;4.17;;;26.20;59.40;;;;;;4959199;29;20450;-88
2022/07/09 07:21:54;;;;;;;6.33;3.50;;;25.80;58.80;;;;;;4954800;29;20449;-88
2022/07/09 07:24:21;;;;;;;7.20;4.90;;;26.50;58.60;;;;;;4954711;29;20474;-88
2022/07/09 07:26:48;;;;;;;6.00;4.00;;;26.10;58.20;;;;;;4937997;29;20450;-88
2022/07/09 07:29:14;;;;;;;7.33;3.83;;;26.40;58.00;;;;;;4938942;29;20448;-89
2022/07/09 07:31:41;;;;;;;4.13;3.73;;;26.60;57.70;;;;;;4939077;29;20889;-89
2022/07/09 07:34:08;;;;;;;6.37;4.53;;;27.00;56.80;;;;;;4940561;29;20480;-88
2022/07/09 07:36:35;;;;;;;9.10;5.80;;;26.60;57.20;;;;;;4940282;29;20460;-89
2022/07/09 07:39:03;;;;;;;4.80;4.30;;;27.00;57.30;;;;;;4940971;29;20480;-89
2022/07/09 07:41:30;;;;;;;8.70;4.57;;;27.40;55.70;;;;;;4940547;29;20450;-89
2022/07/09 07:43:57;;;;;;;7.47;4.70;;;27.50;55.80;;;;;;4943785;29;20474;-88
2022/07/09 07:46:23;;;;;;;5.60;4.33;;;27.90;54.50;;;;;;4942958;29;20439;-83
2022/07/09 07:48:50;;;;;;;4.40;4.00;;;28.60;53.60;;;;;;4937498;29;20498;-83
2022/07/09 07:51:17;;;;;;;5.40;4.20;;;28.70;53.10;;;;;;4937176;29;20815;-83
2022/07/09 07:53:43;;;;;;;6.27;4.20;;;29.60;51.30;;;;;;4937231;29;20479;-83
2022/07/09 07:56:11;;;;;;;6.27;4.50;;;29.60;50.30;;;;;;4935118;29;20505;-83
2022/07/09 07:58:38;;;;;;;4.63;3.67;;;29.90;50.00;;;;;;4936938;29;20447;-84
2022/07/09 08:01:05;;;;;;;5.87;4.30;;;30.00;49.90;;;;;;4935923;29;20691;-83
2022/07/09 08:03:32;;;;;;;4.40;3.27;;;29.80;48.40;;;;;;4936973;29;20477;-84
2022/07/09 08:05:59;;;;;;;5.00;3.77;;;29.60;49.60;;;;;;4937382;29;21002;-83
2022/07/09 08:08:26;;;;;;;7.23;3.83;;;30.00;47.90;;;;;;4949392;29;20485;-82
2022/07/09 08:10:52;;;;;;;5.43;3.87;;;30.50;47.20;;;;;;4950421;29;20451;-83
2022/07/09 08:13:20;;;;;;;6.63;3.53;;;30.60;47.10;;;;;;4938530;29;20466;-83
2022/07/09 08:15:50;;;;;;;6.83;3.50;;;31.70;45.50;;;;;;4949609;29;20438;-83
2022/07/09 08:18:17;;;;;;;4.40;3.17;;;31.40;44.40;;;;;;4949925;29;20497;-83
2022/07/09 08:20:43;;;;;;;4.50;3.10;;;31.40;44.70;;;;;;4939929;29;20444;-83
2022/07/09 08:23:11;;;;;;;4.70;3.47;;;32.00;44.70;;;;;;4936087;29;20470;-84
2022/07/09 08:25:37;;;;;;;4.50;3.50;;;31.70;43.90;;;;;;4934650;29;20457;-84
2022/07/09 08:28:05;;;;;;;4.27;2.83;;;32.30;43.10;;;;;;4934345;29;20478;-85
2022/07/09 08:30:33;;;;;;;3.67;2.37;;;32.70;41.80;;;;;;4936085;29;20471;-86
2022/07/09 08:33:00;;;;;;;7.30;2.80;;;32.80;41.20;;;;;;4937583;29;20477;-83
2022/07/09 08:35:26;;;;;;;2.93;2.60;;;33.30;40.70;;;;;;4942768;29;20459;-82
2022/07/09 08:37:53;;;;;;;4.57;2.90;;;33.60;40.60;;;;;;4952145;29;20451;-82
2022/07/09 08:40:20;;;;;;;6.17;3.30;;;34.40;39.70;;;;;;4940032;29;20950;-83
2022/07/09 08:42:48;;;;;;;3.07;2.20;;;34.40;38.50;;;;;;4938141;29;20964;-82
2022/07/09 08:45:17;;;;;;;3.73;2.23;;;34.40;38.20;;;;;;4949494;29;20525;-82
2022/07/09 08:47:46;;;;;;;5.87;1.50;;;34.10;39.10;;;;;;4947904;29;20538;-82
2022/07/09 08:50:13;;;;;;;3.60;2.23;;;34.00;39.10;;;;;;4940831;29;20463;-83
2022/07/09 08:52:41;;;;;;;3.27;1.40;;;34.70;39.30;;;;;;4940948;29;21013;-82
2022/07/09 08:55:09;;;;;;;2.80;1.33;;;34.60;38.30;;;;;;4939665;29;20447;-82
2022/07/09 08:57:36;;;;;;;4.13;1.70;;;34.50;38.80;;;;;;4936104;29;20445;-83
2022/07/09 09:00:05;;;;;;;2.83;1.43;;;34.60;38.10;;;;;;4938784;29;20835;-83
2022/07/09 09:02:36;;;;;;;2.70;1.83;;;34.90;37.80;;;;;;4933244;29;20456;-84
2022/07/09 09:05:10;;;;;;;5.23;2.47;;;35.30;37.40;;;;;;4936599;29;20556;-85
2022/07/09 09:07:37;;;;;;;2.27;1.53;;;35.90;36.60;;;;;;4949868;29;20452;-85
2022/07/09 09:10:04;;;;;;;4.93;2.07;;;35.20;37.20;;;;;;4972105;23;20512;-82
2022/07/09 09:12:31;;;;;;;3.47;1.63;;;35.30;36.90;;;;;;4947840;29;20469;-82
2022/07/09 09:14:58;;;;;;;2.90;1.27;;;35.90;37.40;;;;;;4954068;29;20514;-83
2022/07/09 09:17:24;;;;;;;4.13;1.50;;;36.70;36.30;;;;;;4945123;29;20452;-83
2022/07/09 09:19:51;;;;;;;3.67;1.70;;;37.00;35.70;;;;;;4942821;29;20617;-80
2022/07/09 09:22:19;;;;;;;2.60;1.67;;;36.60;35.00;;;;;;4923831;29;20454;-83
2022/07/09 09:24:50;;;;;;;3.77;1.80;;;34.30;34.80;;;;;;4923192;29;20467;-83
2022/07/09 09:27:17;;;;;;;4.77;2.13;;;33.20;39.10;;;;;;4924575;29;20527;-80
2022/07/09 09:29:50;;;;;;;2.03;1.20;;;33.50;38.90;;;;;;4924609;29;20549;-82
2022/07/09 09:32:21;;;;;;;4.37;2.17;;;34.50;38.50;;;;;;4926942;29;20471;-84
2022/07/09 09:34:50;;;;;;;2.80;1.43;;;36.10;36.50;;;;;;4927127;29;20912;-81
2022/07/09 09:37:27;;;;;;;2.23;1.60;;;35.70;35.60;;;;;;4928086;29;20822;-83
2022/07/09 09:39:54;;;;;;;2.30;1.43;;;35.80;36.50;;;;;;4925311;29;20463;-83
2022/07/09 09:42:24;;;;;;;4.23;1.77;;;36.70;35.10;;;;;;4923943;29;20461;-83
2022/07/09 09:44:51;;;;;;;4.30;1.87;;;35.90;34.90;;;;;;4921606;29;20452;-82
2022/07/09 09:47:22;;;;;;;2.67;1.53;;;35.60;34.90;;;;;;4926185;29;20454;-81
2022/07/09 09:49:49;;;;;;;4.23;2.20;;;35.40;35.60;;;;;;4926801;29;20556;-82
2022/07/09 09:52:17;;;;;;;5.27;1.87;;;35.00;36.00;;;;;;4922036;29;20510;-82
2022/07/09 09:54:47;;;;;;;6.63;1.87;;;35.80;35.00;;;;;;4921778;29;20460;-82
2022/07/09 09:57:14;;;;;;;3.27;2.00;;;36.40;34.70;;;;;;4921866;29;20457;-82
2022/07/09 09:59:42;;;;;;;2.40;1.70;;;37.10;33.80;;;;;;4922097;29;20458;-82
2022/07/09 10:02:10;;;;;;;3.00;1.97;;;36.90;33.60;;;;;;4923251;29;20501;-82
2022/07/09 10:04:38;;;;;;;3.20;1.70;;;35.90;33.70;;;;;;4926822;29;20503;-82
2022/07/09 10:07:06;;;;;;;3.87;2.20;;;37.00;34.30;;;;;;4926969;29;20453;-83
2022/07/09 10:09:33;;;;;;;2.93;2.07;;;37.80;33.00;;;;;;4925795;29;20500;-82
2022/07/09 10:12:01;;;;;;;2.63;1.50;;;38.30;32.50;;;;;;4923191;29;20522;-82
2022/07/09 10:14:32;;;;;;;4.20;2.00;;;38.30;32.20;;;;;;4925367;29;20878;-82
2022/07/09 10:17:11;;;;;;;3.50;1.63;;;38.20;32.50;;;;;;4923425;29;20455;-82
2022/07/09 10:19:38;;;;;;;2.20;1.53;;;37.10;32.60;;;;;;4923562;29;20481;-82
2022/07/09 10:22:05;;;;;;;3.40;1.90;;;37.10;32.70;;;;;;4924262;29;20465;-81
2022/07/09 10:24:34;;;;;;;4.33;2.20;;;35.50;34.20;;;;;;4922599;29;20448;-81
2022/07/09 10:27:06;;;;;;;2.60;2.00;;;33.20;36.60;;;;;;4934751;29;20455;-80
2022/07/09 10:29:34;;;;;;;3.50;2.20;;;33.30;38.30;;;;;;4937407;29;20597;-81
2022/07/09 10:32:01;;;;;;;3.20;1.73;;;33.80;37.40;;;;;;4935342;29;20475;-82
2022/07/09 10:34:55;;;;;;;3.80;1.77;;;35.90;36.00;;;;;;4924155;29;20464;-81
2022/07/09 10:37:32;;;;;;;4.13;1.80;;;36.70;33.70;;;;;;4924860;29;20457;-81
2022/07/09 10:40:12;;;;;;;5.60;2.00;;;38.30;31.70;;;;;;4931919;29;20452;-81
2022/07/09 10:42:41;;;;;;;2.37;1.60;;;38.00;30.80;;;;;;4927176;29;20461;-82
2022/07/09 10:45:23;;;;;;;4.77;2.10;;;36.70;31.80;;;;;;4929555;29;20484;-82
2022/07/09 10:47:57;;;;;;;4.37;2.00;;;34.50;33.80;;;;;;4928646;29;20485;-81
2022/07/09 10:50:25;;;;;;;3.03;2.20;;;33.20;36.00;;;;;;4926197;29;20476;-82
2022/07/09 10:52:53;;;;;;;4.20;1.90;;;31.90;37.70;;;;;;4928590;29;20451;-82
2022/07/09 10:55:20;;;;;;;3.67;2.17;;;30.70;39.60;;;;;;4931470;29;20803;-83
2022/07/09 10:57:48;;;;;;;3.10;2.27;;;31.20;40.80;;;;;;4923828;29;20473;-83
2022/07/09 11:00:16;;;;;;;3.10;1.80;;;33.50;38.10;;;;;;4923600;29;20479;-82
2022/07/09 11:02:54;;;;;;;2.00;1.40;;;35.30;35.00;;;;;;4924374;29;20500;-82
2022/07/09 11:05:21;;;;;;;3.83;1.70;;;36.70;31.30;;;;;;4924013;29;20462;-82
2022/07/09 11:07:56;;;;;;;2.40;1.80;;;36.70;30.80;;;;;;4923222;29;20461;-82
2022/07/09 11:10:22;;;;;;;8.40;2.60;;;36.30;31.90;;;;;;4921888;29;20980;-83
2022/07/09 11:12:50;;;;;;;1.90;1.30;;;36.30;32.30;;;;;;4922609;29;20457;-82
2022/07/09 11:15:18;;;;;;;3.10;1.90;;;36.70;31.60;;;;;;4923120;29;20450;-82
2022/07/09 11:17:44;;;;;;;3.07;1.70;;;36.10;32.10;;;;;;4922925;29;20492;-81
2022/07/09 11:20:11;;;;;;;2.97;1.90;;;35.30;33.30;;;;;;4924304;29;20531;-82
2022/07/09 11:22:38;;;;;;;3.53;1.67;;;34.30;34.70;;;;;;4924237;29;20458;-82
2022/07/09 11:25:05;;;;;;;2.57;2.23;;;33.30;36.00;;;;;;4922309;29;20451;-82
2022/07/09 11:27:33;;;;;;;3.73;1.87;;;32.90;37.60;;;;;;4922782;29;20462;-82
2022/07/09 11:30:04;;;;;;;4.70;1.70;;;32.50;38.30;;;;;;4924625;29;20514;-81
2022/07/09 11:32:32;;;;;;;3.63;1.50;;;32.50;38.50;;;;;;4923451;29;20940;-82
2022/07/09 11:34:59;;;;;;;3.23;1.63;;;33.30;37.90;;;;;;4922339;29;20552;-82
2022/07/09 11:37:26;;;;;;;2.80;1.97;;;35.60;35.20;;;;;;4921130;29;20910;-82
2022/07/09 11:39:53;;;;;;;1.83;1.37;;;37.30;33.00;;;;;;4920784;29;20445;-82
2022/07/09 11:42:20;;;;;;;3.37;1.97;;;38.20;31.00;;;;;;4920283;29;20866;-82
2022/07/09 11:44:55;;;;;;;5.10;1.53;;;38.30;30.70;;;;;;4921907;29;20457;-82
2022/07/09 11:47:32;;;;;;;2.87;1.20;;;37.60;30.00;;;;;;4927564;29;20521;-82
2022/07/09 11:50:06;;;;;;;2.60;1.60;;;35.60;32.50;;;;;;4920639;29;20545;-81
2022/07/09 11:52:33;;;;;;;4.07;1.77;;;34.10;34.40;;;;;;4921487;29;20497;-81
2022/07/09 11:55:01;;;;;;;6.43;2.63;;;33.20;37.00;;;;;;4920255;29;20461;-81
2022/07/09 11:57:29;;;;;;;2.77;1.87;;;32.50;38.60;;;;;;4919796;29;20457;-81
2022/07/09 11:59:56;;;;;;;2.63;1.80;;;32.00;39.60;;;;;;4919642;29;20451;-81
2022/07/09 12:02:25;;;;;;;2.43;1.57;;;31.90;40.10;;;;;;4921017;29;20455;-81
2022/07/09 12:04:52;;;;;;;2.70;1.50;;;32.10;39.60;;;;;;4920834;29;20901;-81
2022/07/09 12:07:19;;;;;;;2.23;1.60;;;32.90;38.70;;;;;;4919959;29;20463;-81
2022/07/09 12:09:45;;;;;;;4.23;1.60;;;33.40;38.00;;;;;;4919874;29;21196;-81
2022/07/09 12:12:12;;;;;;;4.83;1.97;;;35.40;35.70;;;;;;4920300;29;20448;-81
2022/07/09 12:14:39;;;;;;;2.87;1.73;;;35.40;34.40;;;;;;4920217;29;20525;-82
2022/07/09 12:17:05;;;;;;;3.33;1.33;;;34.60;35.20;;;;;;4920516;29;20461;-81
2022/07/09 12:19:33;;;;;;;2.83;1.47;;;33.60;36.30;;;;;;4920270;29;20480;-81
2022/07/09 12:22:00;;;;;;;4.70;2.10;;;32.50;37.60;;;;;;4919428;29;21304;-81
2022/07/09 12:24:26;;;;;;;4.10;2.00;;;31.80;39.10;;;;;;4924169;29;20478;-81
2022/07/09 12:26:53;;;;;;;2.93;1.53;;;31.30;40.40;;;;;;4925245;29;20463;-84
2022/07/09 12:29:24;;;;;;;3.77;1.70;;;31.40;40.60;;;;;;4927304;29;20521;-82
2022/07/09 12:31:50;;;;;;;3.80;2.33;;;31.80;40.30;;;;;;4927751;29;20470;-82
2022/07/09 12:34:17;;;;;;;3.20;2.40;;;32.10;39.80;;;;;;4925944;29;20471;-80
2022/07/09 12:36:45;;;;;;;3.80;2.30;;;33.40;38.30;;;;;;4928992;29;20444;-83
2022/07/09 12:39:12;;;;;;;2.63;1.63;;;33.90;37.50;;;;;;4921475;29;20443;-83
2022/07/09 12:41:38;;;;;;;1.97;1.60;;;32.80;37.30;;;;;;4918544;29;20526;-82
2022/07/09 12:44:05;;;;;;;3.20;1.97;;;32.30;38.70;;;;;;4916153;29;20475;-83
2022/07/09 12:46:32;;;;;;;2.90;2.00;;;33.00;38.80;;;;;;4915613;29;20952;-83